Time;durP1;ratioP1;P1;durP2;ratioP2;P2;SDS_P1;SDS_P2;PMS_P1;PMS_P2;Temp;Humidity;BMP_temperature;BMP_pressure;BME280_temperature;BME280_humidity;BME280_pressure;Samples;Min_cycle;Max_cycle;Signal;HPM_P1;HPM_P2
2023/09/12 00:01:08;;;;;;;11.50;5.47;;;;;20.70;93999.00;;;;7396074;19;20193;-76
2023/09/12 00:03:36;;;;;;;8.35;5.80;;;;;20.90;93990.00;;;;7395399;19;20163;-76
2023/09/12 00:06:11;;;;;;;12.82;5.60;;;;;20.90;93995.00;;;;7396330;19;20607;-76
2023/09/12 00:08:45;;;;;;;8.48;5.63;;;;;20.80;93994.00;;;;7397575;19;20143;-77
2023/09/12 00:11:20;;;;;;;14.18;5.88;;;;;20.70;93999.00;;;;7393521;19;20129;-77
2023/09/12 00:13:54;;;;;;;10.57;5.75;;;;;20.80;93988.00;;;;7396959;19;20140;-78
2023/09/12 00:16:22;;;;;;;10.73;5.80;;;;;20.70;93994.00;;;;7397979;19;20181;-77
2023/09/12 00:19:02;;;;;;;13.00;6.22;;;;;20.70;93988.00;;;;7392489;19;20147;-77
2023/09/12 00:21:30;;;;;;;14.20;6.30;;;;;20.80;93983.00;;;;7395108;19;20683;-77
2023/09/12 00:24:05;;;;;;;9.88;5.70;;;;;20.80;93985.00;;;;7397825;19;20145;-77
2023/09/12 00:26:33;;;;;;;10.02;5.65;;;;;20.70;93990.00;;;;7396725;19;20129;-77
2023/09/12 00:29:07;;;;;;;10.95;5.75;;;;;20.50;93989.00;;;;7397070;19;20124;-78
2023/09/12 00:31:41;;;;;;;13.57;5.30;;;;;20.40;93979.00;;;;7395747;19;20599;-78
2023/09/12 00:34:19;;;;;;;12.40;5.22;;;;;20.20;93978.00;;;;7395154;19;20129;-77
2023/09/12 00:36:53;;;;;;;11.48;5.40;;;;;20.10;93980.00;;;;7396788;19;20615;-76
2023/09/12 00:39:28;;;;;;;10.95;5.43;;;;;19.90;93971.00;;;;7393970;19;20113;-76
2023/09/12 00:41:56;;;;;;;8.32;5.40;;;;;19.80;93981.00;;;;7395919;19;20157;-76
2023/09/12 00:44:31;;;;;;;14.32;6.72;;;;;19.60;93983.00;;;;7396559;19;20131;-79
2023/09/12 00:47:06;;;;;;;12.60;5.47;;;;;19.60;93979.00;;;;7395405;19;20120;-78
2023/09/12 00:49:41;;;;;;;11.77;5.78;;;;;19.50;93977.00;;;;7394485;19;20619;-76
2023/09/12 00:52:26;;;;;;;12.00;5.63;;;;;19.50;93967.00;;;;7390842;19;20136;-77
2023/09/12 00:54:54;;;;;;;14.38;7.18;;;;;19.50;93970.00;;;;7396626;19;20132;-77
2023/09/12 00:57:33;;;;;;;13.27;6.15;;;;;19.40;93967.00;;;;7394781;19;20489;-77
2023/09/12 01:00:13;;;;;;;17.05;6.25;;;;;19.30;93974.00;;;;7394703;19;20647;-76
2023/09/12 01:02:51;;;;;;;11.70;5.80;;;;;19.20;93970.00;;;;7394802;19;20698;-77
2023/09/12 01:05:22;;;;;;;13.80;5.70;;;;;19.20;93966.00;;;;7396018;19;20144;-75
2023/09/12 01:07:59;;;;;;;10.48;6.03;;;;;19.20;93964.00;;;;7395339;19;20133;-77
2023/09/12 01:10:33;;;;;;;11.15;6.07;;;;;19.30;93959.00;;;;7388918;19;20491;-74
2023/09/12 01:13:09;;;;;;;15.73;6.38;;;;;19.40;93960.00;;;;7395361;19;20133;-74
2023/09/12 01:15:41;;;;;;;15.00;6.68;;;;;19.40;93952.00;;;;7387279;19;20133;-74
2023/09/12 01:18:21;;;;;;;9.18;5.30;;;;;19.20;93959.00;;;;7394059;19;20624;-75
2023/09/12 01:21:18;;;;;;;11.88;5.82;;;;;19.10;93964.00;;;;7395040;19;20480;-74
2023/09/12 01:24:28;;;;;;;17.25;5.72;;;;;19.10;93967.00;;;;7395825;19;20125;-75
2023/09/12 01:27:23;;;;;;;11.02;6.38;;;;;19.10;93965.00;;;;7393652;19;20132;-74
2023/09/12 01:30:03;;;;;;;10.82;5.82;;;;;19.00;93966.00;;;;7394677;19;20212;-73
2023/09/12 01:32:32;;;;;;;10.52;5.75;;;;;19.00;93961.00;;;;7394085;19;20133;-75
2023/09/12 01:35:08;;;;;;;15.10;6.20;;;;;19.10;93973.00;;;;7393483;19;20145;-77
2023/09/12 01:37:36;;;;;;;11.25;6.28;;;;;19.30;93964.00;;;;7393558;19;20158;-75
2023/09/12 01:40:17;;;;;;;11.77;6.22;;;;;19.40;93956.00;;;;7394428;19;20610;-73
2023/09/12 01:42:47;;;;;;;13.43;6.05;;;;;19.60;93966.00;;;;7393363;19;20484;-74
2023/09/12 01:45:22;;;;;;;8.10;5.68;;;;;20.00;93955.00;;;;7394188;19;20159;-74
2023/09/12 01:47:51;;;;;;;13.70;5.90;;;;;20.40;93948.00;;;;7394433;19;20140;-74
2023/09/12 01:50:26;;;;;;;11.55;5.50;;;;;20.60;93944.00;;;;7393395;19;20132;-76
2023/09/12 01:53:03;;;;;;;11.45;5.60;;;;;20.70;93941.00;;;;7394616;19;20584;-75
2023/09/12 01:55:31;;;;;;;13.70;6.20;;;;;20.90;93943.00;;;;7393873;19;20125;-74
2023/09/12 01:58:06;;;;;;;10.50;5.93;;;;;21.00;93936.00;;;;7391407;19;20667;-75
2023/09/12 02:00:41;;;;;;;14.50;5.93;;;;;20.90;93936.00;;;;7392777;19;20594;-75
2023/09/12 02:03:15;;;;;;;15.35;6.03;;;;;21.00;93934.00;;;;7394193;19;20174;-76
2023/09/12 02:05:44;;;;;;;10.18;5.53;;;;;21.40;93932.00;;;;7401970;19;20129;-74
2023/09/12 02:08:19;;;;;;;12.05;5.80;;;;;21.50;93937.00;;;;7400978;19;20145;-74
2023/09/12 02:10:55;;;;;;;8.60;5.57;;;;;21.60;93932.00;;;;7400135;19;20530;-75
2023/09/12 02:13:30;;;;;;;15.98;5.65;;;;;21.60;93933.00;;;;7400382;19;20628;-78
2023/09/12 02:16:03;;;;;;;13.82;5.43;;;;;21.60;93929.00;;;;7400266;19;20133;-74
2023/09/12 02:18:43;;;;;;;11.88;5.65;;;;;21.50;93932.00;;;;7399117;19;20584;-73
2023/09/12 02:21:12;;;;;;;10.95;5.55;;;;;21.20;93935.00;;;;7399146;19;20602;-75
2023/09/12 02:23:46;;;;;;;10.35;5.47;;;;;20.80;93940.00;;;;7400247;19;20157;-75
2023/09/12 02:26:14;;;;;;;11.52;5.72;;;;;20.60;93939.00;;;;7401302;19;20606;-76
2023/09/12 02:28:50;;;;;;;12.10;5.70;;;;;20.50;93939.00;;;;7400282;19;20129;-75
2023/09/12 02:31:17;;;;;;;13.30;5.38;;;;;20.70;93943.00;;;;7397893;19;20618;-74
2023/09/12 02:33:54;;;;;;;11.35;5.55;;;;;20.70;93939.00;;;;7399942;19;20192;-75
2023/09/12 02:36:29;;;;;;;13.13;5.60;;;;;20.70;93940.00;;;;7399857;19;20152;-73
2023/09/12 02:39:04;;;;;;;11.10;5.95;;;;;20.70;93929.00;;;;7397972;19;20196;-74
2023/09/12 02:41:32;;;;;;;13.00;5.97;;;;;20.70;93931.00;;;;7398481;19;20168;-76
2023/09/12 02:44:10;;;;;;;11.23;5.68;;;;;20.50;93925.00;;;;7399942;19;20132;-75
2023/09/12 02:46:39;;;;;;;12.52;5.68;;;;;20.30;93928.00;;;;7401053;19;20212;-75
2023/09/12 02:49:13;;;;;;;13.35;6.28;;;;;20.10;93926.00;;;;7399894;19;20192;-74
2023/09/12 02:51:41;;;;;;;11.15;5.70;;;;;20.10;93932.00;;;;7399730;19;20137;-74
2023/09/12 02:54:16;;;;;;;15.00;5.45;;;;;20.20;93926.00;;;;7400995;19;20116;-75
2023/09/12 02:56:51;;;;;;;8.68;5.53;;;;;20.00;93929.00;;;;7400274;19;20129;-76
2023/09/12 02:59:25;;;;;;;11.70;5.32;;;;;19.90;93926.00;;;;7396382;19;20549;-76
2023/09/12 03:01:54;;;;;;;11.13;5.47;;;;;19.80;93923.00;;;;7397092;19;20186;-75
2023/09/12 03:04:30;;;;;;;12.57;5.82;;;;;19.90;93923.00;;;;7398943;19;20129;-74
2023/09/12 03:07:05;;;;;;;11.43;5.57;;;;;19.80;93926.00;;;;7397051;19;20164;-74
2023/09/12 03:09:34;;;;;;;13.40;5.78;;;;;20.00;93927.00;;;;7398692;19;20565;-77
2023/09/12 03:12:10;;;;;;;13.77;5.40;;;;;20.00;93921.00;;;;7397654;19;20132;-76
2023/09/12 03:14:38;;;;;;;12.40;5.72;;;;;20.10;93922.00;;;;7397120;19;20877;-76
2023/09/12 03:17:06;;;;;;;12.77;6.20;;;;;20.00;93919.00;;;;7396183;19;20129;-74
2023/09/12 03:19:46;;;;;;;13.68;5.93;;;;;20.10;93922.00;;;;7396465;19;20866;-75
2023/09/12 03:22:14;;;;;;;10.70;5.75;;;;;20.00;93916.00;;;;7397581;19;20176;-75
2023/09/12 03:24:48;;;;;;;15.63;5.25;;;;;20.00;93920.00;;;;7397796;19;20184;-74
2023/09/12 03:27:16;;;;;;;11.30;5.90;;;;;20.00;93925.00;;;;7397212;19;20152;-74
2023/09/12 03:29:52;;;;;;;9.07;5.60;;;;;19.90;93922.00;;;;7398733;19;20647;-74
2023/09/12 03:32:26;;;;;;;8.32;5.40;;;;;19.60;93914.00;;;;7398707;19;20140;-74
2023/09/12 03:35:00;;;;;;;10.32;5.20;;;;;19.60;93911.00;;;;7398124;19;20136;-74
2023/09/12 03:37:28;;;;;;;18.40;5.75;;;;;19.70;93909.00;;;;7395894;19;20121;-75
2023/09/12 03:40:04;;;;;;;13.45;5.43;;;;;19.90;93913.00;;;;7395589;19;20205;-75
2023/09/12 03:42:39;;;;;;;9.82;6.05;;;;;20.00;93909.00;;;;7396031;19;20995;-73
2023/09/12 03:45:09;;;;;;;10.65;5.80;;;;;20.00;93909.00;;;;7397712;19;20588;-74
2023/09/12 03:47:46;;;;;;;15.35;6.38;;;;;20.20;93907.00;;;;7398734;19;20123;-75
2023/09/12 03:50:21;;;;;;;11.90;5.70;;;;;20.20;93904.00;;;;7398520;19;20132;-75
2023/09/12 03:52:55;;;;;;;11.65;6.10;;;;;20.50;93909.00;;;;7394967;19;20617;-74
2023/09/12 03:55:23;;;;;;;7.53;6.05;;;;;20.40;93891.00;;;;7396066;19;20599;-75
2023/09/12 03:57:51;;;;;;;13.88;5.75;;;;;20.50;93893.00;;;;7397997;19;20143;-74
2023/09/12 04:00:26;;;;;;;17.00;5.78;;;;;20.50;93891.00;;;;7395859;19;20136;-74
2023/09/12 04:03:04;;;;;;;10.93;6.00;;;;;20.40;93893.00;;;;7393521;19;20172;-75
2023/09/12 04:05:38;;;;;;;12.75;6.35;;;;;20.20;93896.00;;;;7397782;19;20137;-74
2023/09/12 04:08:12;;;;;;;14.35;6.18;;;;;20.20;93894.00;;;;7397762;19;20149;-74
2023/09/12 04:10:46;;;;;;;12.20;5.90;;;;;20.10;93900.00;;;;7397173;19;20129;-75
2023/09/12 04:13:22;;;;;;;10.07;6.28;;;;;20.00;93897.00;;;;7396247;19;20576;-74
2023/09/12 04:15:56;;;;;;;11.70;6.45;;;;;20.00;93899.00;;;;7396272;19;20151;-75
2023/09/12 04:18:24;;;;;;;14.38;6.00;;;;;20.10;93893.00;;;;7397330;19;20216;-75
2023/09/12 04:21:10;;;;;;;9.38;5.93;;;;;20.00;93904.00;;;;7393188;19;20152;-75
2023/09/12 04:23:38;;;;;;;8.60;5.82;;;;;20.00;93898.00;;;;7394586;19;20624;-74
2023/09/12 04:26:12;;;;;;;8.45;5.75;;;;;20.00;93883.00;;;;7397419;19;20156;-80
2023/09/12 04:28:50;;;;;;;8.70;5.88;;;;;20.00;93901.00;;;;7396846;19;20132;-76
2023/09/12 04:31:17;;;;;;;15.55;6.07;;;;;20.10;93891.00;;;;7394105;19;20208;-77
2023/09/12 04:33:54;;;;;;;14.82;6.78;;;;;20.20;93891.00;;;;7394222;19;20143;-77
2023/09/12 04:36:24;;;;;;;11.57;6.20;;;;;20.20;93887.00;;;;7395693;19;20615;-77
2023/09/12 04:39:00;;;;;;;9.10;6.18;;;;;20.30;93894.00;;;;7393893;19;20211;-78
2023/09/12 04:41:27;;;;;;;8.52;6.28;;;;;20.50;93891.00;;;;7396046;19;20196;-76
2023/09/12 04:43:55;;;;;;;11.85;6.57;;;;;20.80;93892.00;;;;7393591;19;20151;-75
2023/09/12 04:46:29;;;;;;;8.23;5.78;;;;;20.90;93883.00;;;;7394345;19;20145;-78
2023/09/12 04:49:04;;;;;;;7.93;5.85;;;;;20.90;93886.00;;;;7395853;19;20753;-78
2023/09/12 04:51:34;;;;;;;10.77;6.00;;;;;20.80;93894.00;;;;7394048;19;20129;-77
2023/09/12 04:54:09;;;;;;;8.52;5.72;;;;;20.70;93892.00;;;;7394437;19;20175;-77
2023/09/12 04:56:43;;;;;;;10.20;6.03;;;;;20.60;93888.00;;;;7395956;19;20469;-77
2023/09/12 04:59:17;;;;;;;7.72;5.63;;;;;20.70;93891.00;;;;7393095;19;20957;-78
2023/09/12 05:01:45;;;;;;;8.13;5.55;;;;;20.50;93892.00;;;;7395777;19;20156;-78
2023/09/12 05:04:19;;;;;;;10.35;5.75;;;;;20.40;93891.00;;;;7394250;19;20185;-77
2023/09/12 05:06:48;;;;;;;9.45;5.72;;;;;20.40;93901.00;;;;7393659;19;20116;-76
2023/09/12 05:09:22;;;;;;;8.65;6.03;;;;;20.40;93908.00;;;;7396624;19;20449;-77
2023/09/12 05:11:50;;;;;;;8.68;6.20;;;;;20.40;93891.00;;;;7389796;19;20145;-75
2023/09/12 05:14:24;;;;;;;12.00;5.78;;;;;20.50;93898.00;;;;7392946;19;20147;-76
2023/09/12 05:16:53;;;;;;;7.00;5.57;;;;;20.60;93904.00;;;;7392533;19;20144;-76
2023/09/12 05:19:21;;;;;;;11.13;5.90;;;;;20.70;93902.00;;;;7392101;19;20149;-78
2023/09/12 05:21:55;;;;;;;9.27;5.32;;;;;20.80;93905.00;;;;7393727;19;20150;-77
2023/09/12 05:24:23;;;;;;;11.52;5.40;;;;;20.80;93905.00;;;;7395135;19;20497;-77
2023/09/12 05:26:57;;;;;;;10.98;5.85;;;;;21.10;93908.00;;;;7392944;19;20153;-78
2023/09/12 05:29:26;;;;;;;11.30;5.93;;;;;21.00;93907.00;;;;7394636;19;20141;-76
2023/09/12 05:32:04;;;;;;;7.40;5.43;;;;;21.10;93914.00;;;;7396385;19;20623;-75
2023/09/12 05:34:36;;;;;;;8.38;5.78;;;;;21.00;93911.00;;;;7390963;19;20155;-79
2023/09/12 05:37:11;;;;;;;7.40;5.80;;;;;21.00;93920.00;;;;7392402;19;20144;-75
2023/09/12 05:39:38;;;;;;;7.72;5.63;;;;;21.00;93925.00;;;;7397785;19;20169;-73
2023/09/12 05:42:14;;;;;;;10.63;5.32;;;;;21.10;93926.00;;;;7377717;19;20631;-74
2023/09/12 05:44:44;;;;;;;9.02;5.43;;;;;21.10;93927.00;;;;7376499;19;20674;-74
2023/09/12 05:47:11;;;;;;;11.00;6.30;;;;;21.10;93920.00;;;;7387351;19;20149;-75
2023/09/12 05:49:46;;;;;;;9.85;5.85;;;;;21.00;93923.00;;;;7389283;19;20647;-74
2023/09/12 05:52:14;;;;;;;7.57;5.47;;;;;20.80;93930.00;;;;7388053;19;20147;-75
2023/09/12 05:54:51;;;;;;;10.88;5.60;;;;;20.80;93937.00;;;;7388144;19;20524;-73
2023/09/12 05:57:23;;;;;;;8.98;5.75;;;;;20.80;93936.00;;;;7390004;19;20164;-74
2023/09/12 05:59:59;;;;;;;11.77;6.07;;;;;20.70;93941.00;;;;7391398;19;20131;-73
2023/09/12 06:02:39;;;;;;;8.82;5.50;;;;;20.70;93938.00;;;;7383317;19;20195;-74
2023/09/12 06:05:08;;;;;;;7.47;5.50;;;;;20.70;93944.00;;;;7386869;19;20136;-74
2023/09/12 06:07:43;;;;;;;8.95;6.13;;;;;20.70;93941.00;;;;7390421;19;20148;-74
2023/09/12 06:10:11;;;;;;;10.57;5.93;;;;;20.70;93947.00;;;;7385898;19;20212;-73
2023/09/12 06:12:46;;;;;;;6.07;5.28;;;;;20.60;93951.00;;;;7380357;19;20629;-73
2023/09/12 06:15:15;;;;;;;8.15;5.78;;;;;20.40;93953.00;;;;7388236;19;20246;-73
2023/09/12 06:17:44;;;;;;;7.43;5.35;;;;;20.40;93955.00;;;;7389027;19;20208;-73
2023/09/12 06:20:27;;;;;;;7.30;5.68;;;;;20.50;93955.00;;;;7389716;19;20255;-74
2023/09/12 06:22:56;;;;;;;8.45;6.10;;;;;20.40;93959.00;;;;7390090;19;20216;-74
2023/09/12 06:25:37;;;;;;;10.48;5.35;;;;;20.40;93960.00;;;;7389333;19;20507;-74
2023/09/12 06:28:09;;;;;;;6.10;5.50;;;;;20.40;93962.00;;;;7385768;19;20134;-73
2023/09/12 06:30:43;;;;;;;11.10;5.90;;;;;20.40;93962.00;;;;7387827;19;20247;-72
2023/09/12 06:33:14;;;;;;;10.77;6.63;;;;;20.30;93968.00;;;;7390645;19;20148;-73
2023/09/12 06:35:50;;;;;;;9.25;5.85;;;;;20.30;93967.00;;;;7387485;19;20135;-72
2023/09/12 06:38:18;;;;;;;6.05;5.45;;;;;20.30;93970.00;;;;7385735;19;20615;-74
2023/09/12 06:40:55;;;;;;;7.25;5.88;;;;;20.40;93959.00;;;;7387771;19;20149;-73
2023/09/12 06:43:30;;;;;;;9.73;6.13;;;;;20.50;93957.00;;;;7391987;19;20148;-73
2023/09/12 06:46:05;;;;;;;9.90;6.47;;;;;20.70;93964.00;;;;7389113;19;20124;-74
2023/09/12 06:48:40;;;;;;;9.43;6.00;;;;;20.80;93952.00;;;;7385842;19;20606;-77
2023/09/12 06:51:15;;;;;;;7.82;6.28;;;;;21.20;93958.00;;;;7386813;19;20132;-74
2023/09/12 06:53:51;;;;;;;8.32;6.50;;;;;21.50;93960.00;;;;7386174;19;20144;-75
2023/09/12 06:56:26;;;;;;;13.00;6.20;;;;;21.80;93957.00;;;;7387139;19;20166;-76
2023/09/12 06:59:00;;;;;;;7.40;5.78;;;;;22.20;93949.00;;;;7384306;19;21070;-77
2023/09/12 07:01:35;;;;;;;10.02;5.90;;;;;22.60;93948.00;;;;7386862;19;20176;-75
2023/09/12 07:04:09;;;;;;;11.93;5.60;;;;;23.00;93950.00;;;;7388997;19;20124;-77
2023/09/12 07:06:43;;;;;;;10.48;5.68;;;;;23.20;93949.00;;;;7384121;19;20484;-77
2023/09/12 07:09:14;;;;;;;8.90;4.72;;;;;23.50;93945.00;;;;7385400;19;20149;-76
2023/09/12 07:11:48;;;;;;;9.25;5.97;;;;;23.90;93947.00;;;;7385047;19;20149;-77
2023/09/12 07:14:16;;;;;;;7.60;5.78;;;;;24.00;93935.00;;;;7385781;19;20148;-76
2023/09/12 07:16:51;;;;;;;9.35;5.70;;;;;24.30;93943.00;;;;7388559;19;20136;-76
2023/09/12 07:19:25;;;;;;;10.00;5.60;;;;;24.50;93932.00;;;;7384312;19;20548;-77
2023/09/12 07:22:08;;;;;;;9.00;6.20;;;;;24.60;93942.00;;;;7384643;19;20638;-76
2023/09/12 07:24:42;;;;;;;6.32;5.40;;;;;24.80;93944.00;;;;7386487;19;20145;-74
2023/09/12 07:27:10;;;;;;;10.15;5.40;;;;;25.10;93941.00;;;;7388294;19;20132;-76
2023/09/12 07:29:44;;;;;;;11.80;5.97;;;;;25.30;93952.00;;;;7385779;19;20144;-75
2023/09/12 07:32:22;;;;;;;10.80;5.32;;;;;25.50;93954.00;;;;7384352;19;20555;-77
2023/09/12 07:34:56;;;;;;;7.18;5.35;;;;;25.50;93945.00;;;;7388313;19;20124;-75
2023/09/12 07:37:26;;;;;;;9.32;4.95;;;;;25.70;93950.00;;;;7387404;19;20834;-76
2023/09/12 07:40:01;;;;;;;9.10;5.45;;;;;25.80;93956.00;;;;7385285;19;20491;-76
2023/09/12 07:42:29;;;;;;;7.75;4.95;;;;;25.90;93959.00;;;;7386251;19;20181;-77
2023/09/12 07:45:05;;;;;;;14.68;5.47;;;;;26.00;93959.00;;;;7388492;19;20125;-77
2023/09/12 07:47:33;;;;;;;8.55;5.38;;;;;26.20;93957.00;;;;7386055;19;20159;-76
2023/09/12 07:50:08;;;;;;;7.68;5.28;;;;;26.20;93948.00;;;;7387589;19;20186;-76
2023/09/12 07:52:36;;;;;;;9.20;4.97;;;;;26.40;93949.00;;;;7383929;19;20516;-75
2023/09/12 07:55:10;;;;;;;6.45;4.40;;;;;26.50;93947.00;;;;7385171;19;20128;-77
2023/09/12 07:57:38;;;;;;;13.38;5.32;;;;;26.70;93953.00;;;;7386715;19;20129;-75
2023/09/12 08:00:09;;;;;;;9.45;5.53;;;;;26.90;93955.00;;;;7386680;19;20485;-77
2023/09/12 08:02:44;;;;;;;8.27;5.40;;;;;27.00;93956.00;;;;7382536;19;20214;-77
2023/09/12 08:05:12;;;;;;;10.43;5.07;;;;;27.10;93962.00;;;;7384921;19;20132;-75
2023/09/12 08:07:47;;;;;;;8.30;5.38;;;;;27.30;93966.00;;;;7385441;19;20170;-76
2023/09/12 08:10:22;;;;;;;7.43;5.30;;;;;27.50;93965.00;;;;7374016;19;20212;-74
2023/09/12 08:12:50;;;;;;;11.82;5.20;;;;;27.70;93971.00;;;;7384144;19;20155;-75
2023/09/12 08:15:24;;;;;;;8.13;5.10;;;;;27.80;93972.00;;;;7382759;19;20156;-78
2023/09/12 08:17:59;;;;;;;9.73;5.32;;;;;28.00;93977.00;;;;7381170;19;20154;-77
2023/09/12 08:20:34;;;;;;;7.88;5.28;;;;;28.00;93973.00;;;;7384038;19;20490;-78
2023/09/12 08:23:09;;;;;;;8.85;5.18;;;;;28.40;93975.00;;;;7381809;19;20140;-77
2023/09/12 08:25:43;;;;;;;13.73;5.05;;;;;28.60;93974.00;;;;7385996;19;21770;-75
2023/09/12 08:28:18;;;;;;;11.23;4.97;;;;;28.70;93975.00;;;;7382618;19;20152;-75
2023/09/12 08:30:47;;;;;;;7.50;4.80;;;;;28.60;93970.00;;;;7385375;19;20143;-77
2023/09/12 08:33:23;;;;;;;9.15;4.97;;;;;28.70;93971.00;;;;7386928;19;20739;-76
2023/09/12 08:36:05;;;;;;;11.52;5.03;;;;;28.60;93985.00;;;;7386931;19;20152;-78
2023/09/12 08:38:40;;;;;;;8.93;5.18;;;;;28.20;93976.00;;;;7388095;19;20192;-76
2023/09/12 08:41:17;;;;;;;10.48;5.22;;;;;28.80;93976.00;;;;7384124;19;20222;-79
2023/09/12 08:43:55;;;;;;;8.63;4.75;;;;;28.90;93981.00;;;;7386241;19;20168;-78
2023/09/12 08:46:24;;;;;;;13.93;5.13;;;;;28.90;93977.00;;;;7383161;19;20141;-78
2023/09/12 08:48:59;;;;;;;12.65;5.68;;;;;29.10;93970.00;;;;7383448;19;20148;-76
2023/09/12 08:51:34;;;;;;;7.85;5.32;;;;;29.00;93985.00;;;;7384429;19;20515;-78
2023/09/12 08:54:09;;;;;;;6.53;5.05;;;;;28.50;93978.00;;;;7384458;19;20163;-77
2023/09/12 08:56:41;;;;;;;8.23;4.70;;;;;28.80;93978.00;;;;7384282;19;20792;-77
2023/09/12 08:59:16;;;;;;;11.13;4.85;;;;;29.10;93980.00;;;;7383840;19;20132;-76
2023/09/12 09:01:52;;;;;;;11.13;6.40;;;;;29.10;93978.00;;;;7383675;19;20671;-78
2023/09/12 09:04:22;;;;;;;9.18;6.30;;;;;29.10;93981.00;;;;7380856;19;20155;-76
2023/09/12 09:07:03;;;;;;;11.60;6.68;;;;;29.10;93989.00;;;;7382475;19;20148;-76
2023/09/12 09:09:33;;;;;;;11.07;5.93;;;;;29.10;93993.00;;;;7383200;19;20500;-76
2023/09/12 09:12:10;;;;;;;10.13;6.40;;;;;29.40;93987.00;;;;7377703;19;20541;-75
2023/09/12 09:14:46;;;;;;;12.85;6.35;;;;;29.40;93989.00;;;;7381067;19;20144;-77
2023/09/12 09:17:15;;;;;;;13.48;6.05;;;;;29.40;93996.00;;;;7383989;19;20591;-76
2023/09/12 09:20:09;;;;;;;9.27;6.30;;;;;29.10;94000.00;;;;7383118;19;20199;-76
2023/09/12 09:23:01;;;;;;;10.55;5.97;;;;;28.70;93999.00;;;;7382232;19;20149;-76
2023/09/12 09:25:31;;;;;;;8.45;6.57;;;;;28.80;93984.00;;;;7382077;19;20144;-76
2023/09/12 09:28:20;;;;;;;10.35;6.43;;;;;28.90;93978.00;;;;7383223;19;20148;-78
2023/09/12 09:30:56;;;;;;;9.98;6.63;;;;;29.40;93972.00;;;;7384517;19;20195;-76
2023/09/12 09:33:38;;;;;;;9.77;6.50;;;;;29.90;93981.00;;;;7382360;19;20168;-77
2023/09/12 09:36:13;;;;;;;10.52;6.10;;;;;29.70;93976.00;;;;7382168;19;20176;-76
2023/09/12 09:38:43;;;;;;;11.63;6.35;;;;;29.90;93973.00;;;;7383570;19;20628;-76
2023/09/12 09:41:24;;;;;;;9.77;6.30;;;;;29.80;93962.00;;;;7380494;19;20148;-75
2023/09/12 09:43:59;;;;;;;10.38;6.20;;;;;29.90;93963.00;;;;7384202;19;20132;-77
2023/09/12 09:46:37;;;;;;;9.00;5.93;;;;;29.60;93975.00;;;;7381926;19;20154;-75
2023/09/12 09:49:15;;;;;;;7.00;5.68;;;;;29.60;93985.00;;;;7385264;19;20567;-77
2023/09/12 09:51:43;;;;;;;11.23;6.68;;;;;29.20;93969.00;;;;7382288;19;20164;-75
2023/09/12 09:54:18;;;;;;;10.35;6.15;;;;;29.90;93967.00;;;;7383681;19;20128;-75
2023/09/12 09:56:57;;;;;;;11.38;5.47;;;;;30.10;93969.00;;;;7381363;19;20133;-77
2023/09/12 09:59:26;;;;;;;6.32;5.72;;;;;30.10;93966.00;;;;7384218;19;20163;-76
2023/09/12 10:02:03;;;;;;;8.38;6.20;;;;;30.30;93963.00;;;;7380955;19;20176;-76
2023/09/12 10:04:34;;;;;;;7.10;5.80;;;;;30.10;93969.00;;;;7381190;19;20128;-77
2023/09/12 10:07:13;;;;;;;8.15;6.10;;;;;30.60;93970.00;;;;7381539;19;20132;-74
2023/09/12 10:09:43;;;;;;;12.00;6.88;;;;;30.30;93981.00;;;;7382898;19;20574;-74
2023/09/12 10:12:17;;;;;;;9.93;6.60;;;;;30.60;93967.00;;;;7379235;19;20215;-74
2023/09/12 10:14:52;;;;;;;9.27;6.20;;;;;30.90;93973.00;;;;7380842;19;20165;-75
2023/09/12 10:17:31;;;;;;;7.15;5.88;;;;;31.00;93963.00;;;;7385932;19;20520;-74
2023/09/12 10:20:22;;;;;;;8.93;6.22;;;;;31.20;93957.00;;;;7380863;19;20182;-74
2023/09/12 10:23:12;;;;;;;9.77;6.15;;;;;31.40;93960.00;;;;7381456;19;20133;-73
2023/09/12 10:25:42;;;;;;;9.35;6.03;;;;;31.60;93964.00;;;;7386982;19;20124;-71
2023/09/12 10:28:19;;;;;;;12.73;6.43;;;;;31.20;93961.00;;;;7389749;19;20171;-75
2023/09/12 10:30:55;;;;;;;9.70;6.18;;;;;31.30;93959.00;;;;7387126;19;20147;-74
2023/09/12 10:33:31;;;;;;;8.85;6.20;;;;;31.40;93960.00;;;;7389057;19;20162;-73
2023/09/12 10:36:08;;;;;;;8.30;6.20;;;;;31.40;93953.00;;;;7389660;19;20591;-76
2023/09/12 10:38:44;;;;;;;12.18;6.30;;;;;31.40;93958.00;;;;7388004;19;20491;-73
2023/09/12 10:41:23;;;;;;;11.18;6.55;;;;;31.60;93952.00;;;;7387859;19;20599;-75
2023/09/12 10:43:59;;;;;;;10.45;6.60;;;;;31.90;93950.00;;;;7385665;19;20133;-72
2023/09/12 10:46:28;;;;;;;7.88;6.35;;;;;31.40;93958.00;;;;7387189;19;20144;-74
2023/09/12 10:49:08;;;;;;;10.50;6.55;;;;;30.10;93979.00;;;;7386942;19;20244;-73
2023/09/12 10:51:45;;;;;;;11.98;6.43;;;;;30.00;93972.00;;;;7388298;19;20148;-72
2023/09/12 10:54:37;;;;;;;10.35;6.32;;;;;29.30;93983.00;;;;7386144;19;20171;-73
2023/09/12 10:57:06;;;;;;;7.57;6.57;;;;;28.60;93985.00;;;;7388061;19;20647;-72
2023/09/12 10:59:59;;;;;;;9.50;6.40;;;;;27.90;93988.00;;;;7387038;19;20237;-73
2023/09/12 11:02:33;;;;;;;10.57;6.70;;;;;27.70;93989.00;;;;7385834;19;20469;-75
2023/09/12 11:05:27;;;;;;;15.23;6.80;;;;;27.40;93966.00;;;;7385909;19;20125;-73
2023/09/12 11:08:05;;;;;;;9.18;6.43;;;;;27.20;93991.00;;;;7387520;19;20145;-73
2023/09/12 11:10:42;;;;;;;8.35;6.45;;;;;27.00;93985.00;;;;7382031;19;20148;-74
2023/09/12 11:13:18;;;;;;;9.43;6.70;;;;;26.90;93984.00;;;;7388959;19;20137;-72
2023/09/12 11:16:20;;;;;;;9.52;6.40;;;;;26.70;93981.00;;;;7385923;19;20503;-72
2023/09/12 11:19:19;;;;;;;10.55;6.93;;;;;26.50;93974.00;;;;7384402;19;20152;-71
2023/09/12 11:22:03;;;;;;;7.80;6.22;;;;;26.20;93950.00;;;;7385953;19;20136;-72
2023/09/12 11:24:46;;;;;;;16.45;6.55;;;;;27.80;93954.00;;;;7375248;19;20145;-72
2023/09/12 11:27:22;;;;;;;8.00;5.90;;;;;28.40;93953.00;;;;7377402;19;20125;-74
2023/09/12 11:30:05;;;;;;;12.07;6.35;;;;;28.60;93956.00;;;;7382306;19;20556;-76
2023/09/12 11:32:43;;;;;;;10.77;6.47;;;;;29.30;93944.00;;;;7384298;19;20152;-75
2023/09/12 11:35:14;;;;;;;10.32;5.72;;;;;30.10;93934.00;;;;7381179;19;20161;-76
2023/09/12 11:37:51;;;;;;;11.10;6.57;;;;;30.80;93954.00;;;;7380884;19;20146;-75
2023/09/12 11:40:26;;;;;;;10.27;5.90;;;;;30.40;93948.00;;;;7383926;19;20139;-76
2023/09/12 11:43:04;;;;;;;7.90;5.95;;;;;30.20;93937.00;;;;7381335;19;20148;-74
2023/09/12 11:45:34;;;;;;;8.30;6.30;;;;;30.50;93928.00;;;;7381315;19;20152;-76
2023/09/12 11:48:09;;;;;;;8.85;5.97;;;;;30.70;93933.00;;;;7383600;19;20136;-76
2023/09/12 11:50:53;;;;;;;9.65;6.13;;;;;30.80;93936.00;;;;7381948;19;20127;-76
2023/09/12 11:53:30;;;;;;;6.28;5.68;;;;;31.40;93923.00;;;;7379788;19;20152;-79
2023/09/12 11:56:14;;;;;;;13.60;6.88;;;;;31.30;93950.00;;;;7381399;19;20166;-77
2023/09/12 11:58:50;;;;;;;7.63;6.50;;;;;30.50;93950.00;;;;7384564;19;20183;-77
2023/09/12 12:01:28;;;;;;;11.38;6.15;;;;;29.60;93956.00;;;;7381738;19;20164;-76
2023/09/12 12:03:57;;;;;;;6.65;5.97;;;;;29.50;93948.00;;;;7381694;19;20148;-78
2023/09/12 12:06:32;;;;;;;8.52;5.80;;;;;30.70;93954.00;;;;7381491;19;20140;-75
2023/09/12 12:09:09;;;;;;;10.55;6.03;;;;;30.60;93928.00;;;;7377693;19;20128;-76
2023/09/12 12:11:44;;;;;;;14.68;6.20;;;;;31.50;93925.00;;;;7375053;19;20492;-74
2023/09/12 12:14:17;;;;;;;9.63;5.85;;;;;31.70;93934.00;;;;7381502;19;20490;-77
2023/09/12 12:16:53;;;;;;;8.00;6.20;;;;;30.80;93944.00;;;;7381995;19;20162;-76
2023/09/12 12:19:23;;;;;;;8.77;5.20;;;;;31.20;93930.00;;;;7377550;19;20643;-77
2023/09/12 12:22:09;;;;;;;12.68;5.47;;;;;32.20;93935.00;;;;7380297;19;20155;-78
2023/09/12 12:24:46;;;;;;;8.60;6.00;;;;;32.70;93931.00;;;;7380546;19;20479;-77
2023/09/12 12:27:22;;;;;;;6.82;6.05;;;;;32.40;93939.00;;;;7380681;19;20147;-77
2023/09/12 12:29:51;;;;;;;9.77;6.18;;;;;31.50;93938.00;;;;7381355;19;20152;-76
2023/09/12 12:32:26;;;;;;;9.88;6.13;;;;;31.10;93937.00;;;;7380566;19;20646;-77
2023/09/12 12:34:54;;;;;;;9.75;5.85;;;;;32.00;93929.00;;;;7386194;19;20127;-77
2023/09/12 12:37:42;;;;;;;9.73;6.30;;;;;32.70;93925.00;;;;7380318;19;20132;-72
2023/09/12 12:40:26;;;;;;;7.70;6.40;;;;;33.30;93927.00;;;;7379588;19;20128;-74
2023/09/12 12:43:19;;;;;;;7.93;6.63;;;;;32.50;93921.00;;;;7381164;19;20148;-77
2023/09/12 12:45:55;;;;;;;6.85;5.93;;;;;32.90;93912.00;;;;7382026;19;20224;-78
2023/09/12 12:48:36;;;;;;;9.35;6.15;;;;;33.80;93905.00;;;;7381867;19;20116;-74
2023/09/12 12:51:17;;;;;;;8.20;6.13;;;;;34.20;93910.00;;;;7377282;19;20627;-74